Time;durP1;ratioP1;P1;durP2;ratioP2;P2;SDS_P1;SDS_P2;PMS_P1;PMS_P2;Temp;Humidity;BMP_temperature;BMP_pressure;BME280_temperature;BME280_humidity;BME280_pressure;Samples;Min_cycle;Max_cycle;Signal;HPM_P1;HPM_P2
2023/09/25 00:02:00;;;;;;;;;;;9.90;99.90;;;;;;5006912;28;20350;-78
2023/09/25 00:04:28;;;;;;;;;;;9.90;99.90;;;;;;4990268;28;19902;-79
2023/09/25 00:06:55;;;;;;;;;;;9.90;99.90;;;;;;4989511;28;20051;-80
2023/09/25 00:09:21;;;;;;;;;;;9.90;99.90;;;;;;4989788;28;20215;-79
2023/09/25 00:11:47;;;;;;;;;;;9.90;99.90;;;;;;5010879;28;19925;-80
2023/09/25 00:14:15;;;;;;;;;;;9.90;99.90;;;;;;4990071;28;19972;-80
2023/09/25 00:16:41;;;;;;;;;;;9.80;99.90;;;;;;5006590;28;19905;-80
2023/09/25 00:19:06;;;;;;;;;;;9.80;99.90;;;;;;4989138;28;19909;-80
2023/09/25 00:21:32;;;;;;;;;;;9.80;99.90;;;;;;4989245;28;19905;-80
2023/09/25 00:23:58;;;;;;;;;;;9.70;99.90;;;;;;5004755;28;20215;-80
2023/09/25 00:26:27;;;;;;;;;;;9.60;99.90;;;;;;5006921;28;19901;-80
2023/09/25 00:28:56;;;;;;;;;;;9.60;99.90;;;;;;4989177;28;19944;-82
2023/09/25 05:49:07;;;;;;;;;;;8.20;99.90;;;;;;5894476;23;19935;-78
2023/09/25 05:51:33;;;;;;;;;;;8.30;99.90;;;;;;5041885;28;20187;-78
2023/09/25 05:53:59;;;;;;;;;;;8.20;99.90;;;;;;5044130;28;19920;-77
2023/09/25 05:56:25;;;;;;;;;;;8.30;99.90;;;;;;5034934;28;20016;-76
2023/09/25 05:58:52;;;;;;;;;;;8.30;99.90;;;;;;5041767;28;20126;-79
2023/09/25 06:01:18;;;;;;;;;;;8.40;99.90;;;;;;5043438;28;19928;-77
2023/09/25 06:03:46;;;;;;;;;;;8.50;99.90;;;;;;5043945;28;19901;-78
2023/09/25 06:06:12;;;;;;;;;;;8.60;99.90;;;;;;5038172;28;19928;-78
2023/09/25 06:08:37;;;;;;;;;;;8.70;99.90;;;;;;5035200;28;20226;-77
2023/09/25 06:11:03;;;;;;;;;;;8.90;99.90;;;;;;5023982;28;19908;-77
2023/09/25 06:13:31;;;;;;;;;;;9.00;99.90;;;;;;5023838;28;19909;-78
2023/09/25 06:15:57;;;;;;;;;;;9.00;99.90;;;;;;5023749;28;19905;-79
2023/09/25 06:18:26;;;;;;;;;;;9.20;99.90;;;;;;5023731;28;19901;-77
2023/09/25 06:20:52;;;;;;;;;;;9.20;99.90;;;;;;5021743;28;19972;-78
2023/09/25 06:23:25;;;;;;;;;;;9.40;99.90;;;;;;5031180;28;20103;-78
2023/09/25 06:25:51;;;;;;;;;;;9.40;99.90;;;;;;5043251;28;19901;-77
2023/09/25 06:28:23;;;;;;;;;;;9.70;99.90;;;;;;5043318;28;19912;-77
2023/09/25 06:30:49;;;;;;;;;;;9.90;99.90;;;;;;5043355;28;19912;-78
2023/09/25 06:33:15;;;;;;;;;;;10.10;99.90;;;;;;5043310;28;19971;-78
2023/09/25 06:35:40;;;;;;;;;;;10.10;99.90;;;;;;5043512;28;19909;-77
2023/09/25 06:38:19;;;;;;;;;;;10.20;99.90;;;;;;5058437;28;19940;-77
2023/09/25 06:40:45;;;;;;;;;;;10.20;99.90;;;;;;5043321;28;19909;-77
2023/09/25 06:43:12;;;;;;;;;;;10.30;99.90;;;;;;5041725;28;19912;-77
2023/09/25 06:45:38;;;;;;;;;;;10.40;99.90;;;;;;5042791;28;19908;-78
2023/09/25 06:48:19;;;;;;;;;;;;;;;;;;;;;
2023/09/25 06:50:52;;;;;;;;;;;10.50;99.90;;;;;;5043167;28;19967;-78
2023/09/25 06:53:18;;;;;;;;;;;10.70;99.90;;;;;;5042083;28;20254;-76
2023/09/25 06:55:47;;;;;;;;;;;10.70;99.90;;;;;;5041510;28;19905;-77
2023/09/25 06:58:15;;;;;;;;;;;10.80;99.90;;;;;;5042405;28;20241;-78
2023/09/25 07:00:43;;;;;;;;;;;10.90;99.90;;;;;;5043446;28;19912;-77
2023/09/25 07:03:30;;;;;;;;;;;11.00;99.90;;;;;;5044679;28;19911;-79
2023/09/25 07:06:02;;;;;;;;;;;11.10;99.90;;;;;;5043344;28;19905;-78
2023/09/25 07:08:27;;;;;;;;;;;11.30;99.90;;;;;;5042942;28;20203;-77
2023/09/25 07:10:56;;;;;;;;;;;11.30;99.90;;;;;;5042826;28;19932;-77
2023/09/25 07:13:45;;;;;;;;;;;11.40;99.90;;;;;;5042828;28;19916;-80
2023/09/25 07:16:35;;;;;;;;;;;11.50;99.90;;;;;;4965736;28;19986;-78
2023/09/25 07:19:15;;;;;;;;;;;11.60;99.90;;;;;;4977390;28;19910;-77
2023/09/25 07:21:41;;;;;;;;;;;11.80;99.90;;;;;;4982008;28;19906;-79
2023/09/25 07:24:07;;;;;;;;;;;11.80;99.90;;;;;;4982409;28;19913;-77
2023/09/25 07:29:51;;;;;;;;;;;11.90;99.90;;;;;;4902670;29;19946;-77
2023/09/25 07:32:19;;;;;;;;;;;12.00;99.90;;;;;;4981478;28;20207;-77
2023/09/25 07:35:17;;;;;;;;;;;12.00;99.90;;;;;;4986012;28;19902;-77
2023/09/25 07:37:47;;;;;;;;;;;12.20;99.90;;;;;;4961430;28;19921;-77
2023/09/25 07:40:14;;;;;;;;;;;12.30;99.90;;;;;;4995252;28;19910;-78
2023/09/25 07:42:43;;;;;;;;;;;12.40;99.90;;;;;;4997908;28;19913;-77
2023/09/25 07:45:12;;;;;;;;;;;12.50;99.90;;;;;;4999937;28;19910;-77
2023/09/25 07:47:38;;;;;;;;;;;12.60;99.90;;;;;;4995876;28;19906;-77
2023/09/25 07:50:10;;;;;;;;;;;12.70;99.90;;;;;;4986315;28;19917;-78
2023/09/25 07:52:40;;;;;;;;;;;12.80;99.90;;;;;;5002899;28;19917;-77
2023/09/25 07:55:11;;;;;;;;;;;12.90;99.90;;;;;;5046246;28;19988;-77
2023/09/25 07:57:40;;;;;;;;;;;13.10;99.90;;;;;;5046204;28;19905;-78
2023/09/25 08:00:25;;;;;;;;;;;13.20;99.90;;;;;;5016161;28;20293;-77
2023/09/25 08:02:52;;;;;;;;;;;13.30;99.90;;;;;;5044219;28;19909;-77
2023/09/25 08:05:18;;;;;;;;;;;13.50;99.90;;;;;;5065367;28;19904;-78
2023/09/25 08:07:47;;;;;;;;;;;13.60;99.90;;;;;;5065972;28;19901;-77
2023/09/25 08:10:14;;;;;;;;;;;13.80;99.50;;;;;;5047393;28;20217;-78
2023/09/25 08:12:40;;;;;;;;;;;13.90;98.90;;;;;;5065797;28;19912;-76
2023/09/25 08:15:06;;;;;;;;;;;13.90;98.60;;;;;;5047082;28;19911;-77
2023/09/25 08:17:31;;;;;;;;;;;14.00;98.40;;;;;;5065026;28;19905;-76
2023/09/25 08:19:58;;;;;;;;;;;14.00;98.30;;;;;;5048487;28;20094;-77
2023/09/25 08:22:24;;;;;;;;;;;14.10;98.10;;;;;;5047549;28;19904;-77
2023/09/25 08:24:50;;;;;;;;;;;14.20;97.80;;;;;;5065477;28;20179;-77
2023/09/25 08:27:15;;;;;;;;;;;14.30;97.40;;;;;;5065081;28;19927;-77
2023/09/25 08:29:41;;;;;;;;;;;14.40;97.40;;;;;;5031853;28;20182;-77
2023/09/25 08:32:07;;;;;;;;;;;14.60;96.80;;;;;;5065302;28;20010;-78
2023/09/25 08:34:35;;;;;;;;;;;14.60;96.80;;;;;;5064943;28;19904;-77
2023/09/25 08:37:01;;;;;;;;;;;14.70;96.70;;;;;;5047356;28;19905;-77
2023/09/25 08:39:27;;;;;;;;;;;14.90;96.20;;;;;;5046904;28;19914;-78
2023/09/25 08:41:53;;;;;;;;;;;14.90;96.30;;;;;;5030805;28;20186;-76
2023/09/25 08:44:20;;;;;;;;;;;15.00;95.90;;;;;;5029801;28;19900;-77
2023/09/25 08:46:47;;;;;;;;;;;15.20;95.60;;;;;;5030878;28;19980;-77
2023/09/25 08:49:13;;;;;;;;;;;15.40;95.50;;;;;;5030607;28;19955;-78
2023/09/25 08:51:39;;;;;;;;;;;15.50;95.10;;;;;;5065098;28;20135;-78
2023/09/25 08:54:05;;;;;;;;;;;15.60;94.90;;;;;;5064798;28;19913;-77
2023/09/25 08:56:31;;;;;;;;;;;15.70;94.90;;;;;;5064031;28;19904;-77
2023/09/25 08:58:59;;;;;;;;;;;15.80;94.70;;;;;;5030394;28;19905;-77
2023/09/25 09:01:24;;;;;;;;;;;15.90;94.20;;;;;;5046628;28;19904;-78
2023/09/25 09:03:51;;;;;;;;;;;16.00;94.20;;;;;;5064619;28;20158;-78
2023/09/25 09:06:16;;;;;;;;;;;16.10;93.50;;;;;;5064653;28;19901;-76
2023/09/25 09:08:46;;;;;;;;;;;16.20;93.40;;;;;;5064857;28;20230;-77
2023/09/25 09:11:12;;;;;;;;;;;16.20;93.30;;;;;;5052930;28;19912;-77
2023/09/25 09:13:41;;;;;;;;;;;16.30;92.90;;;;;;5026423;28;19909;-77
2023/09/25 09:16:14;;;;;;;;;;;16.40;92.70;;;;;;5027159;28;19947;-78
2023/09/25 09:18:40;;;;;;;;;;;16.50;92.50;;;;;;5045396;28;20206;-77
2023/09/25 09:21:19;;;;;;;;;;;16.50;92.10;;;;;;5064427;28;19901;-77
2023/09/25 09:23:45;;;;;;;;;;;16.70;92.10;;;;;;5064359;28;20245;-78
2023/09/25 09:26:12;;;;;;;;;;;16.90;91.80;;;;;;5064389;28;20125;-77
2023/09/25 09:28:44;;;;;;;;;;;16.90;91.30;;;;;;5046496;28;20075;-77
2023/09/25 09:31:22;;;;;;;;;;;17.00;90.80;;;;;;5064344;28;19905;-81
2023/09/25 09:33:48;;;;;;;;;;;17.00;91.00;;;;;;5064355;28;20201;-78
2023/09/25 09:36:19;;;;;;;;;;;17.00;90.70;;;;;;5064035;28;19927;-78
2023/09/25 09:38:48;;;;;;;;;;;17.20;90.10;;;;;;5064133;28;19912;-78
2023/09/25 09:41:17;;;;;;;;;;;17.30;86.70;;;;;;5064107;28;19920;-80
2023/09/25 09:43:44;;;;;;;;;;;17.40;87.30;;;;;;5046569;28;19904;-80
2023/09/25 09:46:11;;;;;;;;;;;17.50;86.10;;;;;;5064023;28;19947;-78
2023/09/25 09:48:38;;;;;;;;;;;17.50;84.20;;;;;;5045791;28;19920;-78
2023/09/25 09:51:04;;;;;;;;;;;17.70;84.20;;;;;;5063711;28;20182;-77
2023/09/25 09:53:33;;;;;;;;;;;17.70;84.40;;;;;;5063917;28;19913;-77
2023/09/25 09:55:59;;;;;;;;;;;17.80;82.80;;;;;;5045967;28;20149;-78
2023/09/25 09:58:26;;;;;;;;;;;17.90;84.30;;;;;;5052888;28;19909;-77
2023/09/25 10:00:54;;;;;;;;;;;17.90;85.40;;;;;;5053964;28;19909;-78
2023/09/25 10:03:20;;;;;;;;;;;18.00;85.70;;;;;;5059220;28;19911;-78
2023/09/25 10:05:49;;;;;;;;;;;18.00;85.50;;;;;;5048052;28;19905;-77
2023/09/25 10:08:15;;;;;;;;;;;18.10;85.50;;;;;;5063693;28;19901;-78
2023/09/25 10:10:45;;;;;;;;;;;18.10;85.00;;;;;;5045765;28;19915;-79
2023/09/25 10:13:28;;;;;;;;;;;18.30;85.40;;;;;;5045039;28;19921;-79
2023/09/25 10:15:58;;;;;;;;;;;18.30;85.70;;;;;;5026268;28;19905;-78
2023/09/25 10:18:27;;;;;;;;;;;18.50;85.40;;;;;;5043522;28;19905;-79
2023/09/25 10:21:08;;;;;;;;;;;18.60;85.50;;;;;;5025810;28;20154;-78
2023/09/25 10:23:34;;;;;;;;;;;18.80;84.40;;;;;;5043026;28;20388;-79
2023/09/25 10:26:02;;;;;;;;;;;18.80;84.80;;;;;;5025644;28;20247;-77
2023/09/25 10:28:29;;;;;;;;;;;18.90;84.30;;;;;;5025221;28;19972;-80
2023/09/25 10:30:55;;;;;;;;;;;19.00;83.80;;;;;;5025847;28;20256;-79
2023/09/25 10:33:21;;;;;;;;;;;19.10;83.50;;;;;;5009206;28;20190;-78
2023/09/25 10:35:48;;;;;;;;;;;19.30;84.00;;;;;;5026065;28;19908;-78
2023/09/25 10:38:17;;;;;;;;;;;19.50;83.00;;;;;;5009322;28;19951;-80
2023/09/25 10:40:44;;;;;;;;;;;19.60;83.20;;;;;;5009814;28;20064;-78
2023/09/25 10:43:09;;;;;;;;;;;19.70;81.80;;;;;;5043211;28;19901;-78
2023/09/25 10:45:35;;;;;;;;;;;19.80;81.00;;;;;;5042792;28;19913;-75
2023/09/25 10:48:01;;;;;;;;;;;19.90;80.50;;;;;;5025223;28;19976;-77
2023/09/25 10:50:30;;;;;;;;;;;20.00;80.40;;;;;;5042511;28;19936;-79
2023/09/25 10:52:56;;;;;;;;;;;20.20;80.00;;;;;;5043531;28;19917;-76
2023/09/25 10:55:21;;;;;;;;;;;20.60;78.70;;;;;;5025277;28;19913;-76
2023/09/25 10:57:47;;;;;;;;;;;21.10;77.90;;;;;;5043664;28;20102;-78
2023/09/25 11:00:15;;;;;;;;;;;21.70;76.10;;;;;;5042994;28;19912;-75
2023/09/25 11:02:41;;;;;;;;;;;22.40;74.60;;;;;;5042900;28;19905;-76
2023/09/25 11:05:08;;;;;;;;;;;23.00;72.50;;;;;;5025624;28;19908;-76
2023/09/25 11:07:37;;;;;;;;;;;23.60;71.70;;;;;;5026889;28;19905;-76
2023/09/25 11:10:04;;;;;;;;;;;24.60;69.80;;;;;;5046632;28;19905;-76
2023/09/25 11:12:30;;;;;;;;;;;25.50;67.00;;;;;;5041202;28;19931;-75
2023/09/25 11:14:57;;;;;;;;;;;26.30;64.40;;;;;;5067100;28;20094;-75
2023/09/25 11:17:23;;;;;;;;;;;26.80;63.30;;;;;;5066750;28;19927;-76
2023/09/25 11:19:51;;;;;;;;;;;27.40;61.40;;;;;;5046895;28;19908;-78
2023/09/25 11:22:20;;;;;;;;;;;27.70;60.30;;;;;;5023524;28;19905;-78
2023/09/25 11:24:55;;;;;;;;;;;27.90;59.70;;;;;;5046045;28;19905;-78
2023/09/25 11:27:22;;;;;;;;;;;28.10;58.90;;;;;;5046697;28;19975;-79
2023/09/25 11:29:48;;;;;;;;;;;28.70;57.80;;;;;;5050018;28;19908;-80
2023/09/25 11:32:15;;;;;;;;;;;28.80;56.40;;;;;;5051597;28;19908;-77
2023/09/25 11:34:43;;;;;;;;;;;29.30;56.40;;;;;;5041388;28;19900;-78
2023/09/25 11:37:16;;;;;;;;;;;29.50;55.70;;;;;;5041937;28;19976;-77
2023/09/25 11:39:43;;;;;;;;;;;30.10;54.80;;;;;;5054519;28;20099;-76
2023/09/25 11:42:09;;;;;;;;;;;30.70;53.30;;;;;;5048684;28;19905;-78
2023/09/25 11:44:34;;;;;;;;;;;31.40;53.20;;;;;;5045599;28;20229;-76
2023/09/25 11:47:00;;;;;;;;;;;31.80;52.50;;;;;;5045407;28;20159;-78
2023/09/25 11:49:26;;;;;;;;;;;32.20;52.50;;;;;;5044887;28;19913;-77
2023/09/25 11:51:51;;;;;;;;;;;32.60;50.40;;;;;;5029553;28;19905;-79
2023/09/25 11:54:17;;;;;;;;;;;32.80;50.90;;;;;;5050708;28;19955;-76
2023/09/25 11:56:43;;;;;;;;;;;32.90;49.70;;;;;;5047231;28;19904;-76
2023/09/25 11:59:11;;;;;;;;;;;32.30;49.30;;;;;;5065830;28;19908;-76
2023/09/25 12:01:43;;;;;;;;;;;32.50;50.00;;;;;;5064568;28;19905;-78
2023/09/25 12:04:09;;;;;;;;;;;32.80;50.20;;;;;;5047902;28;19940;-74
2023/09/25 12:06:35;;;;;;;;;;;33.20;49.90;;;;;;5065634;28;19964;-75
2023/09/25 12:09:11;;;;;;;;;;;33.30;49.30;;;;;;5065421;28;20186;-75
2023/09/25 12:11:37;;;;;;;;;;;33.80;49.00;;;;;;5059214;28;19905;-74
2023/09/25 12:14:04;;;;;;;;;;;34.60;48.20;;;;;;5044374;28;19959;-77
2023/09/25 12:16:30;;;;;;;;;;;35.40;47.10;;;;;;5044981;28;19905;-74
2023/09/25 12:18:56;;;;;;;;;;;35.00;46.30;;;;;;5044445;28;19976;-75
2023/09/25 12:21:22;;;;;;;;;;;35.10;46.20;;;;;;5050967;28;19912;-76
2023/09/25 12:23:47;;;;;;;;;;;35.30;46.60;;;;;;5065642;28;20098;-74
2023/09/25 12:26:15;;;;;;;;;;;36.00;45.70;;;;;;5065277;28;20141;-74
2023/09/25 12:28:41;;;;;;;;;;;35.90;45.30;;;;;;5064823;28;20101;-75
2023/09/25 12:31:06;;;;;;;;;;;36.50;44.70;;;;;;5065110;28;19936;-74
2023/09/25 12:33:32;;;;;;;;;;;36.60;44.90;;;;;;5037399;28;20098;-74
2023/09/25 12:35:58;;;;;;;;;;;36.10;45.10;;;;;;5049630;28;19912;-74
2023/09/25 12:38:23;;;;;;;;;;;36.30;44.50;;;;;;5046595;28;19905;-75
2023/09/25 12:40:49;;;;;;;;;;;36.50;45.10;;;;;;5047317;28;19908;-75
2023/09/25 12:43:14;;;;;;;;;;;37.00;44.50;;;;;;5065483;28;20236;-76
2023/09/25 12:45:40;;;;;;;;;;;37.00;44.30;;;;;;5064351;28;19904;-76
2023/09/25 12:48:06;;;;;;;;;;;37.50;43.90;;;;;;5065213;28;20056;-75
2023/09/25 12:50:31;;;;;;;;;;;37.40;43.40;;;;;;5063263;28;19972;-74
2023/09/25 12:52:57;;;;;;;;;;;37.30;43.30;;;;;;5045084;28;19913;-74
2023/09/25 12:55:22;;;;;;;;;;;37.00;43.20;;;;;;5044930;28;20179;-75
2023/09/25 12:57:50;;;;;;;;;;;37.40;43.00;;;;;;5038357;28;19911;-75
2023/09/25 13:00:18;;;;;;;;;;;37.40;42.70;;;;;;5064669;28;19966;-76
2023/09/25 13:02:44;;;;;;;;;;;38.50;42.50;;;;;;5046913;28;19907;-74
2023/09/25 13:05:10;;;;;;;;;;;38.50;42.10;;;;;;5064832;28;19950;-75
2023/09/25 13:07:36;;;;;;;;;;;37.80;42.40;;;;;;5046749;28;19904;-74
2023/09/25 13:10:04;;;;;;;;;;;38.10;42.80;;;;;;5064806;28;19901;-76
2023/09/25 13:12:30;;;;;;;;;;;38.20;42.10;;;;;;5063758;28;19912;-75
2023/09/25 13:14:56;;;;;;;;;;;37.50;42.70;;;;;;5064394;28;20132;-75
2023/09/25 13:17:21;;;;;;;;;;;37.00;42.90;;;;;;5064087;28;19967;-75
2023/09/25 13:19:48;;;;;;;;;;;36.90;43.10;;;;;;5064569;28;19968;-75
2023/09/25 13:22:14;;;;;;;;;;;36.90;44.30;;;;;;5064248;28;19908;-75
2023/09/25 13:24:40;;;;;;;;;;;37.30;42.90;;;;;;5063847;28;19900;-74
2023/09/25 13:27:06;;;;;;;;;;;37.80;42.80;;;;;;5046543;28;19904;-76
2023/09/25 13:29:32;;;;;;;;;;;38.00;42.30;;;;;;5063729;28;19905;-76
2023/09/25 13:31:58;;;;;;;;;;;38.60;41.90;;;;;;5064243;28;19901;-75
2023/09/25 13:34:25;;;;;;;;;;;38.50;41.20;;;;;;5060470;28;20321;-76
2023/09/25 13:36:51;;;;;;;;;;;38.30;41.70;;;;;;5053546;28;19909;-76
2023/09/25 13:39:17;;;;;;;;;;;38.70;42.20;;;;;;5050526;28;19908;-75
2023/09/25 13:41:43;;;;;;;;;;;39.30;41.40;;;;;;5063986;28;19909;-76
2023/09/25 13:44:10;;;;;;;;;;;39.80;41.20;;;;;;5064053;28;19904;-76
2023/09/25 13:46:36;;;;;;;;;;;40.40;41.00;;;;;;5053543;28;20202;-74
2023/09/25 13:49:02;;;;;;;;;;;40.70;40.20;;;;;;5048893;28;19905;-77
2023/09/25 13:51:27;;;;;;;;;;;40.60;40.50;;;;;;5063689;28;20198;-77
2023/09/25 13:53:55;;;;;;;;;;;41.20;40.40;;;;;;5046230;28;19909;-77
2023/09/25 13:56:22;;;;;;;;;;;;;;;;;;5063350;28;19915;-77
2023/09/25 13:58:47;;;;;;;;;;;41.90;39.00;;;;;;5063991;28;19911;-77
2023/09/25 14:01:52;;;;;;;2.30;0.90;;;41.00;39.00;;;;;;5120985;27;20645;-77
2023/09/25 14:04:17;;;;;;;2.00;0.82;;;40.80;40.20;;;;;;5120740;28;20099;-77
2023/09/25 14:06:45;;;;;;;2.25;1.08;;;40.70;39.70;;;;;;5120243;28;20031;-77
2023/09/25 14:09:10;;;;;;;1.70;0.98;;;41.40;40.00;;;;;;5119949;28;20087;-78
2023/09/25 14:11:36;;;;;;;1.80;0.85;;;41.50;39.50;;;;;;5113915;28;20322;-75
2023/09/25 14:14:02;;;;;;;2.60;1.00;;;40.80;39.90;;;;;;5120207;28;20035;-76
2023/09/25 14:16:28;;;;;;;2.58;0.82;;;40.70;39.90;;;;;;5120350;28;20039;-75
2023/09/25 14:18:53;;;;;;;2.50;0.90;;;39.60;40.30;;;;;;5120130;28;20061;-75
2023/09/25 14:21:20;;;;;;;2.53;1.00;;;38.30;41.30;;;;;;5119826;28;20336;-75
2023/09/25 14:23:48;;;;;;;3.03;1.20;;;38.20;41.10;;;;;;5120562;28;20024;-76
2023/09/25 14:26:16;;;;;;;2.15;1.00;;;38.30;41.50;;;;;;5116894;28;20082;-75
2023/09/25 14:28:44;;;;;;;2.70;1.20;;;38.50;40.90;;;;;;5099679;28;20032;-76
2023/09/25 14:31:09;;;;;;;2.45;1.05;;;38.20;42.10;;;;;;5099579;28;20027;-76
2023/09/25 14:33:39;;;;;;;4.03;1.20;;;38.50;41.70;;;;;;5098880;28;20032;-76
2023/09/25 14:36:06;;;;;;;2.60;1.00;;;39.00;41.50;;;;;;5099286;28;20053;-75
2023/09/25 14:38:32;;;;;;;2.60;1.05;;;39.40;40.00;;;;;;5099051;28;20079;-75
2023/09/25 14:40:58;;;;;;;2.63;0.95;;;39.10;40.80;;;;;;5099609;28;20028;-76
2023/09/25 14:43:24;;;;;;;2.45;0.90;;;39.60;40.60;;;;;;5099367;28;20124;-75
2023/09/25 14:45:50;;;;;;;2.35;0.80;;;40.10;40.50;;;;;;5104415;28;20027;-77
2023/09/25 14:48:16;;;;;;;1.92;0.82;;;40.20;40.40;;;;;;5114205;28;20218;-76
2023/09/25 14:50:43;;;;;;;2.70;0.90;;;39.80;40.70;;;;;;5119411;28;20034;-75
2023/09/25 14:53:09;;;;;;;2.42;0.80;;;39.10;41.40;;;;;;5119508;28;20015;-76
2023/09/25 14:55:35;;;;;;;3.05;0.80;;;39.70;40.90;;;;;;5119088;28;20095;-77
2023/09/25 14:58:01;;;;;;;1.30;0.60;;;39.80;40.40;;;;;;5119453;28;20042;-77
2023/09/25 15:00:27;;;;;;;2.60;1.25;;;39.50;40.40;;;;;;5119307;28;20042;-76
2023/09/25 15:02:53;;;;;;;2.17;0.70;;;39.30;41.10;;;;;;5119793;28;20066;-76
2023/09/25 15:05:19;;;;;;;2.90;0.77;;;38.90;40.40;;;;;;5119420;28;20292;-75
2023/09/25 15:07:44;;;;;;;1.98;0.70;;;39.70;40.90;;;;;;5114100;28;20069;-76
2023/09/25 15:10:10;;;;;;;2.90;0.93;;;39.70;40.60;;;;;;5099724;28;20032;-76
2023/09/25 15:12:36;;;;;;;2.30;0.77;;;39.10;41.40;;;;;;5087558;28;20062;-76
2023/09/25 15:15:03;;;;;;;2.33;0.90;;;38.60;41.30;;;;;;5085652;28;20024;-75
2023/09/25 15:17:30;;;;;;;1.93;0.87;;;39.10;41.20;;;;;;5084485;28;20020;-77
2023/09/25 15:19:58;;;;;;;2.28;1.05;;;39.70;40.90;;;;;;5087624;28;20102;-75
2023/09/25 15:22:26;;;;;;;2.10;0.90;;;39.90;40.60;;;;;;5103976;28;20332;-76
2023/09/25 15:24:53;;;;;;;1.75;0.80;;;39.30;40.70;;;;;;5108749;28;20020;-76
2023/09/25 15:27:19;;;;;;;2.80;1.17;;;38.50;41.20;;;;;;5109034;28;20048;-75
2023/09/25 15:29:45;;;;;;;2.60;1.10;;;39.10;41.20;;;;;;5093219;28;20377;-76
2023/09/25 15:32:12;;;;;;;2.28;1.10;;;39.40;41.20;;;;;;5084068;28;20310;-76
2023/09/25 15:34:41;;;;;;;2.42;0.90;;;39.30;42.00;;;;;;5085124;28;20032;-77
2023/09/25 15:37:07;;;;;;;1.50;0.70;;;39.90;40.60;;;;;;5084547;28;20024;-77
2023/09/25 15:39:34;;;;;;;2.35;1.05;;;39.60;41.40;;;;;;5084814;28;20044;-78
2023/09/25 15:41:59;;;;;;;2.08;0.95;;;39.80;40.80;;;;;;5084152;28;20029;-76
2023/09/25 15:44:25;;;;;;;3.13;1.05;;;39.20;40.90;;;;;;5083383;28;20020;-76
2023/09/25 15:46:51;;;;;;;3.03;1.00;;;39.10;41.30;;;;;;5099309;28;20053;-76
2023/09/25 15:49:19;;;;;;;1.95;1.02;;;38.80;41.40;;;;;;5082595;28;20024;-75
2023/09/25 15:51:45;;;;;;;1.60;1.00;;;38.80;41.70;;;;;;5103827;28;20080;-75
2023/09/25 15:54:10;;;;;;;1.92;0.90;;;38.80;42.00;;;;;;5105305;28;20191;-77
2023/09/25 15:56:37;;;;;;;2.17;0.82;;;38.70;41.50;;;;;;5104711;28;20036;-76
2023/09/25 15:59:04;;;;;;;1.70;0.68;;;38.30;41.50;;;;;;5103981;28;20031;-77
2023/09/25 16:01:29;;;;;;;3.45;1.00;;;38.00;42.10;;;;;;5103228;28;20101;-76
2023/09/25 16:03:55;;;;;;;1.95;0.80;;;37.80;42.10;;;;;;5104781;28;20027;-78
2023/09/25 16:06:21;;;;;;;1.95;0.85;;;37.60;42.30;;;;;;5097890;28;20020;-78
2023/09/25 16:08:47;;;;;;;2.30;0.98;;;37.10;43.00;;;;;;5092872;28;20097;-78
2023/09/25 16:11:13;;;;;;;2.05;0.90;;;37.00;42.80;;;;;;5098784;28;20039;-76
2023/09/25 16:13:39;;;;;;;3.10;1.05;;;37.40;42.90;;;;;;5103422;28;20058;-77
2023/09/25 16:16:14;;;;;;;2.95;0.90;;;37.00;43.20;;;;;;5084774;28;20025;-77
2023/09/25 16:18:40;;;;;;;2.85;0.90;;;36.30;43.40;;;;;;5084051;28;20051;-78
2023/09/25 16:21:06;;;;;;;3.00;0.95;;;35.20;44.50;;;;;;5088058;28;20031;-78
2023/09/25 16:23:32;;;;;;;2.30;0.90;;;33.80;45.70;;;;;;5093477;28;20132;-76
2023/09/25 16:25:57;;;;;;;2.38;1.10;;;32.50;47.80;;;;;;5084256;28;20282;-78
2023/09/25 16:28:24;;;;;;;2.85;0.98;;;30.90;49.40;;;;;;5084180;28;20200;-77
2023/09/25 16:30:49;;;;;;;2.08;0.90;;;29.80;51.10;;;;;;5086319;28;20046;-78
2023/09/25 16:33:15;;;;;;;2.03;0.80;;;29.10;52.10;;;;;;5084592;28;20032;-76
2023/09/25 16:35:41;;;;;;;2.55;0.93;;;28.30;53.10;;;;;;5083559;28;20047;-76
2023/09/25 16:38:07;;;;;;;2.33;1.20;;;27.50;54.50;;;;;;5092724;28;20309;-76
2023/09/25 16:40:38;;;;;;;3.85;1.20;;;26.80;55.60;;;;;;5094899;28;20340;-79
2023/09/25 16:43:04;;;;;;;2.15;1.00;;;26.30;57.70;;;;;;5096922;28;20035;-77
2023/09/25 16:45:34;;;;;;;2.72;1.15;;;26.10;57.50;;;;;;5100991;28;20036;-77
2023/09/25 16:48:00;;;;;;;3.30;0.80;;;25.80;58.10;;;;;;5084022;28;20047;-77
2023/09/25 16:50:26;;;;;;;2.85;0.82;;;25.40;59.00;;;;;;5082336;28;20270;-78
2023/09/25 16:52:52;;;;;;;2.30;1.13;;;25.00;59.80;;;;;;5083807;28;20028;-77
2023/09/25 16:55:17;;;;;;;2.47;1.20;;;24.70;60.60;;;;;;5097286;28;20277;-76
2023/09/25 16:57:43;;;;;;;1.98;0.85;;;24.40;61.70;;;;;;5096815;28;20028;-77
2023/09/25 17:00:09;;;;;;;2.08;1.00;;;24.20;62.40;;;;;;5097286;28;20056;-78
2023/09/25 17:02:35;;;;;;;2.38;1.08;;;24.10;63.10;;;;;;5102805;28;20034;-79
2023/09/25 17:05:01;;;;;;;2.35;1.25;;;24.10;63.10;;;;;;5094376;28;20039;-77
2023/09/25 17:07:26;;;;;;;2.75;1.00;;;23.90;63.50;;;;;;5082405;28;20044;-79
2023/09/25 17:09:52;;;;;;;2.50;1.17;;;23.60;64.20;;;;;;5096584;28;20027;-76
2023/09/25 17:12:18;;;;;;;2.35;1.15;;;23.50;64.70;;;;;;5104736;28;20233;-78
2023/09/25 17:14:43;;;;;;;2.47;1.13;;;23.30;65.10;;;;;;5104728;28;20027;-76
2023/09/25 17:17:09;;;;;;;4.97;1.27;;;23.10;66.10;;;;;;5105138;28;20020;-76
2023/09/25 17:19:35;;;;;;;3.67;1.30;;;23.10;66.10;;;;;;5102418;28;20028;-79
2023/09/25 17:22:02;;;;;;;3.28;1.20;;;23.10;66.70;;;;;;5082694;28;20024;-79
2023/09/25 17:24:29;;;;;;;2.83;1.20;;;22.90;66.80;;;;;;5083502;28;20088;-77
2023/09/25 17:26:54;;;;;;;6.07;1.85;;;22.80;67.40;;;;;;5084304;28;20028;-76
2023/09/25 17:29:20;;;;;;;4.80;2.00;;;22.80;68.00;;;;;;5083467;28;20039;-75
2023/09/25 17:31:46;;;;;;;3.25;1.67;;;22.70;68.00;;;;;;5083684;28;20028;-75
2023/09/25 17:34:12;;;;;;;3.90;2.00;;;22.50;68.40;;;;;;5083699;28;20032;-76
2023/09/25 17:36:38;;;;;;;3.70;2.03;;;22.40;68.90;;;;;;5081941;28;20040;-76
2023/09/25 17:39:03;;;;;;;3.53;1.80;;;22.30;69.30;;;;;;5082267;28;20019;-75
2023/09/25 17:41:29;;;;;;;5.05;1.90;;;22.20;70.20;;;;;;5082645;28;20047;-75
2023/09/25 17:43:55;;;;;;;4.22;2.80;;;22.20;69.70;;;;;;5083268;28;20329;-76
2023/09/25 17:46:20;;;;;;;5.53;2.40;;;22.10;70.10;;;;;;5092792;28;20020;-76
2023/09/25 17:48:47;;;;;;;6.15;2.65;;;22.00;70.70;;;;;;5102649;28;20031;-77
2023/09/25 17:51:13;;;;;;;6.10;2.00;;;21.70;71.60;;;;;;5103185;28;20039;-75
2023/09/25 17:53:38;;;;;;;3.80;1.90;;;21.50;71.70;;;;;;5102632;28;20210;-74
2023/09/25 17:56:04;;;;;;;4.45;2.42;;;21.50;72.50;;;;;;5102079;28;20032;-75
2023/09/25 17:58:30;;;;;;;5.05;2.40;;;21.40;72.80;;;;;;5090538;28;20063;-76
2023/09/25 18:00:57;;;;;;;5.93;2.63;;;21.30;72.80;;;;;;5082553;28;20156;-76
2023/09/25 18:03:23;;;;;;;4.38;2.10;;;21.30;73.00;;;;;;5082548;28;20032;-77
2023/09/25 18:05:49;;;;;;;6.05;2.72;;;21.20;73.30;;;;;;5082116;28;20037;-77
2023/09/25 18:08:14;;;;;;;4.25;2.20;;;21.10;73.60;;;;;;5082268;28;20044;-78
2023/09/25 18:10:40;;;;;;;4.55;2.05;;;20.90;73.90;;;;;;5082195;28;20034;-78
2023/09/25 18:13:06;;;;;;;5.47;2.53;;;20.90;74.40;;;;;;5081150;28;20380;-78
2023/09/25 18:15:32;;;;;;;5.47;2.78;;;20.90;74.60;;;;;;5090478;28;20036;-78
2023/09/25 18:17:58;;;;;;;5.65;3.10;;;20.80;74.80;;;;;;5075513;28;20035;-77
2023/09/25 18:20:24;;;;;;;7.10;3.13;;;20.70;74.90;;;;;;5061351;28;20067;-77
2023/09/25 18:22:50;;;;;;;7.32;3.95;;;20.60;74.90;;;;;;5075776;28;20234;-77
2023/09/25 18:25:15;;;;;;;6.85;4.28;;;20.60;75.30;;;;;;5061394;28;20368;-77
2023/09/25 18:27:41;;;;;;;7.25;4.85;;;20.40;75.70;;;;;;5060755;28;20103;-76
2023/09/25 18:30:07;;;;;;;5.78;3.30;;;20.30;76.50;;;;;;5067546;28;20021;-77
2023/09/25 18:32:33;;;;;;;4.88;2.95;;;20.10;76.90;;;;;;5070678;28;20029;-77
2023/09/25 18:35:00;;;;;;;6.82;3.47;;;20.00;78.10;;;;;;5061390;28;20215;-77
2023/09/25 18:37:26;;;;;;;6.13;3.72;;;19.90;78.50;;;;;;5061370;28;20025;-77
2023/09/25 18:39:52;;;;;;;6.53;3.58;;;19.80;78.60;;;;;;5062064;28;20283;-77
2023/09/25 18:42:17;;;;;;;6.95;4.05;;;19.70;79.30;;;;;;5062178;28;20041;-77
2023/09/25 18:44:43;;;;;;;6.32;3.92;;;19.50;79.50;;;;;;5074892;28;20089;-79
2023/09/25 18:47:10;;;;;;;6.20;3.65;;;19.30;80.80;;;;;;5082128;28;20099;-79
2023/09/25 18:49:36;;;;;;;7.50;4.10;;;19.20;80.30;;;;;;5080070;28;20065;-77
2023/09/25 18:52:01;;;;;;;6.35;3.45;;;19.20;81.80;;;;;;5085331;28;20038;-78
2023/09/25 18:54:27;;;;;;;8.02;3.70;;;19.00;82.40;;;;;;5086293;28;20025;-79
2023/09/25 18:56:53;;;;;;;7.32;3.85;;;18.90;82.70;;;;;;5085549;28;20040;-77
2023/09/25 18:59:19;;;;;;;6.13;3.42;;;18.70;83.50;;;;;;5085941;28;20044;-78
2023/09/25 19:01:44;;;;;;;6.40;3.17;;;18.50;83.90;;;;;;5076569;28;20361;-78
2023/09/25 19:04:10;;;;;;;4.15;2.75;;;18.50;83.90;;;;;;5057800;28;20024;-77
2023/09/25 19:06:36;;;;;;;4.45;2.78;;;18.40;84.60;;;;;;5066911;28;20027;-79